»·PEaware :: SWA4192 KPHX-KSNA

SWA4192 :: KPHX-KSNA

FLIGHT INFORMATION

Flight Status: Arrived
Operator:
Southwest Airlines
More flights by this operator :: More flights under this callsign
Pilot: Ben L. (6391)
Aircraft: BOEING 737-800
(B738)
More flights by this aircraft type
Origin: KPHX Phoenix Sky Harbor Intl
United States
Destination: KSNA John Wayne-Orange Co
United States
More flights between these airports :: More routes between these airports
Route: KEENS2 HRRBR EMLLD DSNEE4
File this flight plan on PilotEdge
Remarks:
Altitude:
(Current/Filed)
34,000ft
Speed:
(Current/Filed)
460kts
Departed: 26-Oct-19 02:39 PM
Arrived: 26-Oct-19 03:38 PM
Distance/Time
Traveled:
293nm/0:59
Distance/Time
To Go:
Arrived

Flight Plot

Page will automatically refresh every two minutes.

Flight plan parsing failed; only flown route is shown


Map Options




Map Legend


Flown Route
Filed Route
Departure Airport
Arrival Airport
Navaid (VOR, NDB)
Fix

Horizontal Profiles

Position Reports

Time Latitude Longitude Heading Altitude Ground
Speed
26-Oct-19 14:19 33.433926 -111.999902 83 1116ft 0kts
26-Oct-19 14:20 33.433926 -111.999902 83 1116ft 0kts
26-Oct-19 14:21 33.433926 -111.999902 83 1116ft 0kts
26-Oct-19 14:22 33.433926 -111.999902 83 1116ft 0kts
26-Oct-19 14:23 33.433926 -111.999902 83 1116ft 0kts
26-Oct-19 14:24 33.433926 -111.999902 83 1116ft 0kts
26-Oct-19 14:25 33.433926 -111.999902 83 1116ft 0kts
26-Oct-19 14:26 33.433926 -111.999902 83 1116ft 0kts
26-Oct-19 14:27 33.433926 -111.999902 83 1116ft 0kts
26-Oct-19 14:28 33.433926 -111.999902 83 1116ft 0kts
26-Oct-19 14:29 33.433926 -111.999902 83 1116ft 0kts
26-Oct-19 14:30 33.433925 -111.999917 84 1116ft 1kts
26-Oct-19 14:31 33.434184 -112.000373 182 1116ft 1kts
26-Oct-19 14:32 33.434239 -112.000368 181 1116ft 0kts
26-Oct-19 14:33 33.432928 -112.000636 245 1116ft 8kts
26-Oct-19 14:34 33.432904 -112.006221 272 1116ft 18kts
26-Oct-19 14:35 33.432132 -112.011097 267 1116ft 14kts
26-Oct-19 14:36 33.432055 -112.019372 271 1116ft 30kts
26-Oct-19 14:37 33.431809 -112.027224 196 1116ft 8kts
26-Oct-19 14:38 33.431068 -112.015062 90 1116ft 137kts
26-Oct-19 14:39 33.432740 -111.953535 85 3055ft 200kts
26-Oct-19 14:40 33.435759 -111.881961 107 4944ft 239kts
26-Oct-19 14:41 33.377477 -111.851154 202 7011ft 283kts
26-Oct-19 14:42 33.352016 -111.931550 282 10410ft 283kts
26-Oct-19 14:43 33.366651 -112.033904 280 13003ft 324kts
26-Oct-19 14:44 33.383113 -112.142650 280 16447ft 336kts
26-Oct-19 14:45 33.399754 -112.255010 280 19646ft 349kts
26-Oct-19 14:46 33.416899 -112.371464 280 22568ft 361kts
26-Oct-19 14:47 33.434599 -112.492501 280 25232ft 373kts
26-Oct-19 14:48 33.450585 -112.617773 272 27641ft 385kts
26-Oct-19 14:49 33.452104 -112.746337 271 29860ft 396kts
26-Oct-19 14:50 33.467265 -112.878846 282 32177ft 400kts
26-Oct-19 14:51 33.491796 -113.008381 281 33880ft 405kts
26-Oct-19 14:52 33.516558 -113.141543 281 33887ft 405kts
26-Oct-19 14:53 33.541008 -113.273848 281 33888ft 406kts
26-Oct-19 14:54 33.565356 -113.406417 281 33886ft 406kts
26-Oct-19 14:55 33.589488 -113.538641 281 33884ft 406kts
26-Oct-19 14:56 33.614157 -113.671430 281 33881ft 406kts
26-Oct-19 14:57 33.638745 -113.804080 281 33873ft 406kts
26-Oct-19 14:58 33.675480 -113.932378 293 33873ft 408kts
26-Oct-19 14:59 33.723674 -114.056440 292 33871ft 408kts
26-Oct-19 15:00 33.763498 -114.183493 278 33849ft 404kts
26-Oct-19 15:01 33.777694 -114.318180 279 33862ft 406kts
26-Oct-19 15:02 33.793523 -114.452735 278 33868ft 406kts
26-Oct-19 15:03 33.809425 -114.587408 277 33839ft 405kts
26-Oct-19 15:04 33.824446 -114.719347 277 33846ft 406kts
26-Oct-19 15:05 33.839724 -114.854574 277 33845ft 406kts
26-Oct-19 15:06 33.854565 -114.989232 276 33844ft 406kts
26-Oct-19 15:07 33.869633 -115.124999 276 33843ft 410kts
26-Oct-19 15:08 33.884674 -115.261639 276 33836ft 412kts
26-Oct-19 15:09 33.899570 -115.398398 276 33814ft 411kts
26-Oct-19 15:10 33.914299 -115.535130 276 33805ft 411kts
26-Oct-19 15:12 33.927826 -115.663647 274 33812ft 411kts
26-Oct-19 15:13 33.937094 -115.802573 274 33820ft 398kts
26-Oct-19 15:14 33.946564 -115.936342 274 33829ft 403kts
26-Oct-19 15:15 33.956121 -116.073613 274 31916ft 418kts
26-Oct-19 15:16 33.962608 -116.215296 265 29153ft 431kts
26-Oct-19 15:17 33.945405 -116.359778 262 26359ft 440kts
26-Oct-19 15:18 33.927166 -116.507464 262 23431ft 447kts
26-Oct-19 15:19 33.909407 -116.646326 262 22890ft 374kts
26-Oct-19 15:20 33.894800 -116.759175 262 21301ft 342kts
26-Oct-19 15:21 33.882550 -116.871826 263 18951ft 332kts
26-Oct-19 15:22 33.870575 -116.981129 263 16580ft 325kts
26-Oct-19 15:23 33.858639 -117.088550 264 14237ft 321kts
26-Oct-19 15:24 33.846910 -117.193873 264 12031ft 314kts
26-Oct-19 15:25 33.835318 -117.297142 264 9897ft 307kts
26-Oct-19 15:26 33.824331 -117.394205 264 8438ft 281kts
26-Oct-19 15:27 33.808514 -117.478859 251 7972ft 249kts
26-Oct-19 15:28 33.795361 -117.553806 272 7625ft 226kts
26-Oct-19 15:29 33.796780 -117.631766 272 7156ft 229kts
26-Oct-19 15:30 33.798092 -117.704620 271 6341ft 194kts
26-Oct-19 15:31 33.805366 -117.766059 312 5254ft 184kts
26-Oct-19 15:31 33.843755 -117.766421 55 4356ft 195kts
26-Oct-19 15:33 33.811640 -117.737679 220 3389ft 177kts
26-Oct-19 15:34 33.782491 -117.783392 238 3033ft 171kts
26-Oct-19 15:34 33.756596 -117.816227 217 2037ft 157kts
26-Oct-19 15:35 33.720732 -117.840598 208 902ft 139kts
26-Oct-19 15:37 33.682397 -117.864578 208 84ft 128kts
26-Oct-19 15:37 33.669509 -117.872022 146 64ft 15kts
26-Oct-19 15:38 33.671128 -117.868835 37 64ft 20kts
26-Oct-19 15:39 33.676218 -117.865087 29 63ft 19kts
26-Oct-19 15:40 33.678732 -117.862876 96 63ft 0kts
26-Oct-19 15:41 33.678710 -117.862751 103 64ft 0kts
26-Oct-19 15:42 33.678710 -117.862751 103 64ft 0kts
26-Oct-19 15:43 33.678710 -117.862751 103 64ft 0kts

Navigation Log

Ident Type
Flight plan parsing failed, navigation log unavailable